createdAt,value
2018-04-08T00:00:33.676Z,92.40
2018-04-08T00:03:01.137Z,92.70
2018-04-08T00:05:28.588Z,92.90
2018-04-08T00:07:56.036Z,92.90
2018-04-08T00:10:23.485Z,93.10
2018-04-08T00:12:51.741Z,93.30
2018-04-08T00:15:20.041Z,93.10
2018-04-08T00:17:47.512Z,93.10
2018-04-08T00:20:14.957Z,93.10
2018-04-08T00:22:42.413Z,93.30
2018-04-08T00:25:09.857Z,93.10
2018-04-08T00:27:37.316Z,92.50
2018-04-08T00:30:04.761Z,92.20
2018-04-08T00:32:32.980Z,92.60
2018-04-08T00:35:01.193Z,93.20
2018-04-08T00:37:28.639Z,93.10
2018-04-08T00:39:56.085Z,93.40
2018-04-08T00:42:23.535Z,93.30
2018-04-08T00:44:50.984Z,93.50
2018-04-08T00:47:18.437Z,93.80
2018-04-08T00:49:45.885Z,94.10
2018-04-08T00:52:13.332Z,94.10
2018-04-08T00:54:40.777Z,94.40
2018-04-08T00:57:08.236Z,94.40
2018-04-08T00:59:35.685Z,94.30
2018-04-08T01:02:03.124Z,94.30
2018-04-08T01:04:31.340Z,94.10
2018-04-08T01:06:58.879Z,94.10
2018-04-08T01:09:27.084Z,93.60
2018-04-08T01:11:54.529Z,93.60
2018-04-08T01:14:21.974Z,93.40
2018-04-08T01:16:49.432Z,93.50
2018-04-08T01:19:16.880Z,93.40
2018-04-08T01:21:44.352Z,93.60
2018-04-08T01:24:11.814Z,94.20
2018-04-08T01:26:39.252Z,94.10
2018-04-08T01:29:06.701Z,93.90
2018-04-08T01:31:34.158Z,93.70
2018-04-08T01:34:01.608Z,94.00
2018-04-08T01:36:29.054Z,93.90
2018-04-08T01:38:57.274Z,93.50
2018-04-08T01:41:24.717Z,93.50
2018-04-08T01:43:52.175Z,93.90
2018-04-08T01:46:19.621Z,94.00
2018-04-08T01:48:47.084Z,93.90
2018-04-08T01:51:14.535Z,94.00
2018-04-08T01:53:41.980Z,93.70
2018-04-08T01:56:09.852Z,93.80
2018-04-08T01:58:37.409Z,93.70
2018-04-08T02:01:04.865Z,93.50
2018-04-08T02:03:32.304Z,93.40
2018-04-08T02:05:59.751Z,93.70
2018-04-08T02:08:27.957Z,94.10
2018-04-08T02:10:55.407Z,94.10
2018-04-08T02:13:22.849Z,94.10
2018-04-08T02:15:50.296Z,94.60
2018-04-08T02:18:18.596Z,94.30
2018-04-08T02:20:46.037Z,94.30
2018-04-08T02:23:13.481Z,94.30
2018-04-08T02:25:41.688Z,94.80
2018-04-08T02:28:09.132Z,94.70
2018-04-08T02:30:36.587Z,94.70
2018-04-08T02:33:04.042Z,94.90
2018-04-08T02:35:31.485Z,95.10
2018-04-08T02:37:59.687Z,95.20
2018-04-08T02:40:27.153Z,95.00
2018-04-08T02:42:54.590Z,95.10
2018-04-08T02:45:22.029Z,95.40
2018-04-08T02:47:50.253Z,95.00
2018-04-08T02:50:17.700Z,94.90
2018-04-08T02:52:45.157Z,95.30
2018-04-08T02:55:12.599Z,95.20
2018-04-08T02:57:40.047Z,94.80
2018-04-08T03:00:07.505Z,95.40
2018-04-08T03:02:34.946Z,95.40
2018-04-08T03:05:02.411Z,95.20
2018-04-08T03:07:29.871Z,95.10
2018-04-08T03:09:57.318Z,95.10
2018-04-08T03:12:24.764Z,94.90
2018-04-08T03:14:52.980Z,95.10
2018-04-08T03:17:20.427Z,95.10
2018-04-08T03:19:47.875Z,95.00
2018-04-08T03:22:15.324Z,95.00
2018-04-08T03:24:42.768Z,95.60
2018-04-08T03:27:10.975Z,95.70
2018-04-08T03:29:38.433Z,95.70
2018-04-08T03:32:05.879Z,95.50
2018-04-08T03:34:33.326Z,96.00
2018-04-08T03:37:00.777Z,96.20
2018-04-08T03:39:28.226Z,95.80
2018-04-08T03:41:55.679Z,96.00
2018-04-08T03:44:23.888Z,96.10
2018-04-08T03:46:51.336Z,96.10
2018-04-08T03:49:18.784Z,96.30
2018-04-08T03:51:46.237Z,96.60
2018-04-08T03:54:13.676Z,96.60
2018-04-08T03:56:41.884Z,96.10
2018-04-08T03:59:09.345Z,96.10
2018-04-08T04:01:36.788Z,96.00
2018-04-08T04:04:04.240Z,95.70
2018-04-08T04:06:31.689Z,95.80
2018-04-08T04:08:59.152Z,95.90
2018-04-08T04:11:26.601Z,96.20
2018-04-08T04:13:54.045Z,96.40
2018-04-08T04:16:22.255Z,96.20
2018-04-08T04:19:01.541Z,96.10
2018-04-08T04:21:41.768Z,96.50
2018-04-08T04:24:21.272Z,96.50
2018-04-08T04:26:48.722Z,96.50
2018-04-08T04:29:16.168Z,96.40
2018-04-08T04:31:43.622Z,96.50
2018-04-08T04:34:11.069Z,96.80
2018-04-08T04:36:39.281Z,97.00
2018-04-08T04:39:06.725Z,97.00
2018-04-08T04:41:34.175Z,96.90
2018-04-08T04:44:01.620Z,97.20
2018-04-08T04:46:29.056Z,97.30
2018-04-08T04:48:57.271Z,96.80
2018-04-08T04:51:24.738Z,96.80
2018-04-08T04:53:52.185Z,96.70
2018-04-08T04:56:19.642Z,96.60
2018-04-08T04:58:47.092Z,96.60
2018-04-08T05:01:14.548Z,96.60
2018-04-08T05:03:42.049Z,96.50
2018-04-08T05:06:09.452Z,96.50
2018-04-08T05:08:36.918Z,96.80
2018-04-08T05:11:04.376Z,96.90
2018-04-08T05:13:31.850Z,96.90
2018-04-08T05:15:59.300Z,97.00
2018-04-08T05:18:26.748Z,97.30
2018-04-08T05:20:54.200Z,96.90
2018-04-08T05:23:21.644Z,96.50
2018-04-08T05:25:49.096Z,96.50
2018-04-08T05:28:16.546Z,96.00
2018-04-08T05:30:44.783Z,95.70
2018-04-08T05:33:12.988Z,95.60
2018-04-08T05:35:41.196Z,95.70
2018-04-08T05:38:08.641Z,95.60
2018-04-08T05:40:36.084Z,95.90
2018-04-08T05:43:04.292Z,95.70
2018-04-08T05:45:31.750Z,95.70
2018-04-08T05:47:59.191Z,95.70
2018-04-08T05:50:26.636Z,95.50
2018-04-08T05:52:54.083Z,95.70
2018-04-08T05:55:21.549Z,95.40
2018-04-08T05:57:48.996Z,95.30
2018-04-08T06:00:17.214Z,95.20
2018-04-08T06:02:44.651Z,95.20
2018-04-08T06:05:12.109Z,95.10
2018-04-08T06:07:39.560Z,95.10
2018-04-08T06:10:07.058Z,95.10
2018-04-08T06:12:34.472Z,95.20
2018-04-08T06:15:01.949Z,95.30
2018-04-08T06:17:29.406Z,95.30
2018-04-08T06:19:56.843Z,95.40
2018-04-08T06:22:24.297Z,95.10
2018-04-08T06:24:51.747Z,94.90
2018-04-08T06:27:19.204Z,94.90
2018-04-08T06:29:46.652Z,94.60
2018-04-08T06:32:14.129Z,94.70
2018-04-08T06:34:41.556Z,94.50
2018-04-08T06:37:09.777Z,94.10
2018-04-08T06:39:37.225Z,94.10
2018-04-08T06:42:04.675Z,94.40
2018-04-08T06:44:32.127Z,94.20
2018-04-08T06:46:59.581Z,94.10
2018-04-08T06:49:27.067Z,94.40
2018-04-08T06:51:54.522Z,94.30
2018-04-08T06:54:21.973Z,93.90
2018-04-08T06:56:50.197Z,92.60
2018-04-08T06:59:18.416Z,92.10
2018-04-08T07:01:45.884Z,92.10
2018-04-08T07:04:13.332Z,92.00
2018-04-08T07:06:40.801Z,91.00
2018-04-08T07:09:08.268Z,90.50
2018-04-08T07:11:35.729Z,90.10
2018-04-08T07:14:03.176Z,88.50
2018-04-08T07:16:30.632Z,86.30
2018-04-08T07:18:58.092Z,86.80
2018-04-08T07:21:25.540Z,84.90
2018-04-08T07:23:52.996Z,83.60
2018-04-08T07:26:20.492Z,83.90
2018-04-08T07:28:48.900Z,78.90
2018-04-08T07:31:16.537Z,78.80
2018-04-08T07:33:44.022Z,76.00
2018-04-08T07:36:11.472Z,66.30
2018-04-08T07:38:38.937Z,57.80
2018-04-08T07:41:06.389Z,49.40
2018-04-08T07:43:33.854Z,45.10
2018-04-08T07:46:01.336Z,39.90
2018-04-08T07:48:28.799Z,35.70
2018-04-08T07:50:56.267Z,34.30
2018-04-08T07:53:24.507Z,31.30
2018-04-08T07:55:51.967Z,31.20
2018-04-08T07:58:20.029Z,30.10
2018-04-08T08:00:48.388Z,28.80
2018-04-08T08:03:15.840Z,27.40
2018-04-08T08:05:43.308Z,29.50
2018-04-08T08:08:10.769Z,29.70
2018-04-08T08:10:38.383Z,30.00
2018-04-08T08:13:06.777Z,28.60
2018-04-08T08:15:34.245Z,28.60
2018-04-08T08:18:01.702Z,27.30
2018-04-08T08:20:29.178Z,28.00
2018-04-08T08:22:56.935Z,26.00
2018-04-08T08:25:24.566Z,24.50
2018-04-08T08:27:52.207Z,24.00
2018-04-08T08:30:20.681Z,24.20
2018-04-08T08:32:49.130Z,23.70
2018-04-08T08:35:16.841Z,23.70
2018-04-08T08:37:45.275Z,25.00
2018-04-08T08:40:13.011Z,25.00
2018-04-08T08:42:40.649Z,24.20
2018-04-08T08:45:08.289Z,24.10
2018-04-08T08:47:37.512Z,25.30
2018-04-08T08:50:05.171Z,25.10
2018-04-08T08:52:32.780Z,25.50
2018-04-08T08:55:00.491Z,25.00
2018-04-08T08:57:28.163Z,24.10
2018-04-08T08:59:56.334Z,23.40
2018-04-08T09:02:24.448Z,24.40
2018-04-08T09:04:52.110Z,23.40
2018-04-08T09:07:19.773Z,23.50
2018-04-08T09:09:47.368Z,25.30
2018-04-08T09:12:15.374Z,24.60
2018-04-08T09:14:43.968Z,23.30
2018-04-08T09:17:11.647Z,24.00
2018-04-08T09:23:00.404Z,22.40
2018-04-08T09:25:43.224Z,22.30
2018-04-08T09:28:11.348Z,22.80
2018-04-08T09:30:39.695Z,22.60
2018-04-08T09:33:07.301Z,22.50
2018-04-08T09:35:40.364Z,22.20
2018-04-08T09:38:08.945Z,21.10
2018-04-08T09:40:37.359Z,22.10
2018-04-08T09:43:05.071Z,22.10
2018-04-08T09:45:33.687Z,24.10
2018-04-08T09:48:01.375Z,24.10
2018-04-08T09:50:28.984Z,22.70
2018-04-08T09:52:56.577Z,21.30
2018-04-08T09:55:24.172Z,22.20
2018-04-08T09:57:51.787Z,21.90
2018-04-08T10:03:26.669Z,19.90
2018-04-08T10:05:54.277Z,20.60
2018-04-08T10:08:23.115Z,20.50
2018-04-08T10:10:50.789Z,20.40
2018-04-08T10:13:18.482Z,19.90
2018-04-08T10:15:46.916Z,19.70
2018-04-08T10:18:14.425Z,19.70
2018-04-08T10:20:41.872Z,19.90
2018-04-08T10:23:09.324Z,20.30
2018-04-08T10:25:36.785Z,20.10
2018-04-08T10:28:04.253Z,21.20
2018-04-08T10:30:31.704Z,21.00
2018-04-08T10:32:59.165Z,21.20
2018-04-08T10:35:26.657Z,22.30
2018-04-08T10:37:54.852Z,20.40
2018-04-08T10:40:22.317Z,20.30
2018-04-08T10:42:49.769Z,20.80
2018-04-08T10:45:17.229Z,20.50
2018-04-08T10:47:44.705Z,20.20
2018-04-08T10:50:13.000Z,20.20
2018-04-08T10:52:40.464Z,20.00
2018-04-08T10:55:07.920Z,21.90
2018-04-08T10:57:35.381Z,22.20
2018-04-08T11:00:03.609Z,21.60
2018-04-08T11:02:31.081Z,21.50
2018-04-08T11:04:58.598Z,21.50
2018-04-08T11:07:25.997Z,22.00
2018-04-08T11:09:54.252Z,21.00
2018-04-08T11:12:21.703Z,21.00
2018-04-08T11:14:49.159Z,21.90
2018-04-08T11:17:16.608Z,22.10
2018-04-08T11:19:44.057Z,22.40
2018-04-08T11:22:11.508Z,21.10
2018-04-08T11:24:38.957Z,21.50
2018-04-08T11:27:06.406Z,21.70
2018-04-08T11:29:34.626Z,22.50
2018-04-08T11:32:02.843Z,22.60
2018-04-08T11:34:31.667Z,24.70
2018-04-08T11:36:59.330Z,24.70
2018-04-08T11:44:30.260Z,26.20
2018-04-08T11:46:57.953Z,27.00
2018-04-08T11:49:25.516Z,27.60
2018-04-08T11:51:53.796Z,27.40
2018-04-08T12:14:32.010Z,28.20
2018-04-08T12:17:01.781Z,28.10
2018-04-08T12:33:54.029Z,27.80
2018-04-08T12:47:54.729Z,28.20
2018-04-08T12:50:22.188Z,27.10
2018-04-08T12:52:49.647Z,26.80
2018-04-08T12:55:17.113Z,26.60
2018-04-08T12:57:44.578Z,26.60
2018-04-08T13:00:13.731Z,27.20
2018-04-08T13:03:02.942Z,27.20
2018-04-08T13:05:30.558Z,27.50
2018-04-08T13:07:58.095Z,26.90
2018-04-08T13:10:25.667Z,27.10
2018-04-08T13:16:01.910Z,26.40
2018-04-08T13:23:38.181Z,28.00
2018-04-08T13:26:05.904Z,26.90
2018-04-08T13:28:33.567Z,26.30
2018-04-08T13:31:02.234Z,25.80
2018-04-08T13:45:05.576Z,25.80
2018-04-08T13:53:19.231Z,23.70
2018-04-08T13:55:46.710Z,25.40
2018-04-08T13:58:14.173Z,24.00
2018-04-08T14:00:43.093Z,24.80
2018-04-08T14:03:10.662Z,25.20
2018-04-08T14:05:38.146Z,24.60
2018-04-08T14:36:53.862Z,24.50
2018-04-08T14:39:21.364Z,24.40
2018-04-08T14:41:48.894Z,25.40
2018-04-08T14:44:31.435Z,24.30
2018-04-08T14:47:00.123Z,25.40
2018-04-08T14:49:28.153Z,24.90
2018-04-08T14:51:55.684Z,25.90
2018-04-08T14:54:23.194Z,26.10
2018-04-08T14:59:43.753Z,25.90
2018-04-08T15:31:08.927Z,26.80
2018-04-08T15:33:38.085Z,27.00
2018-04-08T15:44:56.830Z,28.60
2018-04-08T15:56:02.967Z,28.50
2018-04-08T16:04:18.184Z,28.50
2018-04-08T16:06:45.644Z,28.90
2018-04-08T16:09:13.134Z,29.00
2018-04-08T16:11:41.396Z,29.00
2018-04-08T16:34:35.462Z,29.00
2018-04-08T17:08:44.833Z,33.10
2018-04-08T17:11:12.341Z,33.50
2018-04-08T17:30:57.421Z,37.90
2018-04-08T17:50:47.477Z,42.80
2018-04-08T17:53:15.061Z,43.90
2018-04-08T18:01:28.225Z,47.70
2018-04-08T18:55:45.189Z,68.60
2018-04-08T19:15:31.030Z,75.90
2018-04-08T19:18:04.463Z,77.10
2018-04-08T19:20:32.182Z,76.80
2018-04-08T19:22:59.709Z,78.50
2018-04-08T19:25:27.270Z,79.10
2018-04-08T19:27:54.760Z,79.20
2018-04-08T19:30:23.666Z,79.40
2018-04-08T19:32:51.266Z,80.80
2018-04-08T19:35:18.772Z,81.10
2018-04-08T19:37:46.269Z,81.50
2018-04-08T19:40:14.023Z,81.80
2018-04-08T19:42:43.796Z,82.00
2018-04-08T20:02:28.167Z,84.20
2018-04-08T20:04:55.734Z,86.20
2018-04-08T20:07:23.196Z,86.10
2018-04-08T20:27:07.973Z,87.20
2018-04-08T20:46:52.881Z,90.40
2018-04-08T20:49:20.679Z,90.30
2018-04-08T21:11:55.894Z,90.50
2018-04-08T21:14:23.438Z,91.10
2018-04-08T21:16:51.042Z,91.50
2018-04-08T21:19:18.505Z,91.50
2018-04-08T21:21:45.980Z,91.20
2018-04-08T21:24:13.801Z,91.00
2018-04-08T21:26:41.946Z,91.00
2018-04-08T21:29:09.560Z,91.30
2018-04-08T21:31:37.040Z,91.90
2018-04-08T21:34:04.557Z,92.40
2018-04-08T21:36:32.161Z,92.50
2018-04-08T21:39:00.340Z,92.70
2018-04-08T21:41:28.171Z,92.60
2018-04-08T21:43:57.149Z,93.20
2018-04-08T21:46:27.778Z,93.40
2018-04-08T21:48:55.257Z,93.30
2018-04-08T21:51:25.813Z,93.60
2018-04-08T21:53:53.706Z,93.70
2018-04-08T21:56:21.413Z,93.40
2018-04-08T21:58:48.910Z,93.40
2018-04-08T22:01:16.372Z,93.10
2018-04-08T22:03:43.828Z,92.90
2018-04-08T22:23:29.044Z,93.60
2018-04-08T22:25:57.727Z,93.40
2018-04-08T22:28:25.812Z,93.40
2018-04-08T22:30:53.603Z,93.70
2018-04-08T22:33:22.645Z,93.40
2018-04-08T22:35:50.157Z,93.90
2018-04-08T22:38:17.659Z,94.20
2018-04-08T22:40:45.169Z,94.30
2018-04-08T22:43:13.603Z,94.40
2018-04-08T22:45:41.128Z,94.60
2018-04-08T22:48:08.869Z,94.60
2018-04-08T22:50:36.911Z,94.60
2018-04-08T22:53:04.808Z,94.50
2018-04-08T23:12:48.492Z,94.60
2018-04-08T23:15:15.953Z,95.00
2018-04-08T23:17:43.501Z,95.10
2018-04-08T23:20:11.042Z,95.20
2018-04-08T23:22:38.520Z,95.10
2018-04-08T23:25:06.319Z,95.70
2018-04-08T23:27:33.982Z,95.40
2018-04-08T23:30:01.597Z,95.50
2018-04-08T23:32:29.275Z,95.20
2018-04-08T23:34:56.806Z,95.30
2018-04-08T23:37:24.342Z,95.40
2018-04-08T23:39:52.287Z,95.70
2018-04-08T23:42:19.759Z,95.50
2018-04-08T23:44:47.229Z,95.60
2018-04-08T23:47:14.689Z,95.50
2018-04-08T23:49:42.165Z,95.50
2018-04-08T23:52:09.824Z,95.40
2018-04-08T23:54:37.295Z,95.40
2018-04-08T23:57:04.797Z,95.70
2018-04-08T23:59:32.280Z,95.70
